createdAt,value
2023-03-15T00:00:50.462Z,56.47
2023-03-15T00:03:19.745Z,56.51
2023-03-15T00:05:52.306Z,56.23
2023-03-15T00:08:21.863Z,56.41
2023-03-15T00:10:50.044Z,56.24
2023-03-15T00:13:18.553Z,56.34
2023-03-15T00:15:48.182Z,56.60
2023-03-15T00:18:16.831Z,56.50
2023-03-15T00:20:45.193Z,56.57
2023-03-15T00:23:16.002Z,56.92
2023-03-15T00:25:46.159Z,56.79
2023-03-15T00:28:14.619Z,56.66
2023-03-15T00:30:43.120Z,56.63
2023-03-15T00:33:13.874Z,56.78
2023-03-15T00:35:43.769Z,56.60
2023-03-15T00:38:13.641Z,56.60
2023-03-15T00:40:44.457Z,56.64
2023-03-15T00:43:18.031Z,56.51
2023-03-15T00:45:46.470Z,56.48
2023-03-15T00:48:14.333Z,56.30
2023-03-15T00:50:43.814Z,56.31
2023-03-15T00:53:12.037Z,56.35
2023-03-15T00:55:39.972Z,56.38
2023-03-15T00:58:09.244Z,56.22
2023-03-15T01:00:38.284Z,56.40
2023-03-15T01:03:10.834Z,56.41
2023-03-15T01:05:39.106Z,56.33
2023-03-15T01:08:07.744Z,56.31
2023-03-15T01:10:36.410Z,56.34
2023-03-15T01:13:04.643Z,56.52
2023-03-15T01:15:34.069Z,56.28
2023-03-15T01:18:02.109Z,56.39
2023-03-15T01:20:30.696Z,56.39
2023-03-15T01:22:58.671Z,56.16
2023-03-15T01:25:26.690Z,56.43
2023-03-15T01:27:55.348Z,56.23
2023-03-15T01:30:23.402Z,56.12
2023-03-15T01:32:52.712Z,56.13
2023-03-15T01:35:21.134Z,55.99
2023-03-15T01:37:50.648Z,55.99
2023-03-15T01:40:20.183Z,56.21
2023-03-15T01:43:15.016Z,55.99
2023-03-15T01:46:04.652Z,56.39
2023-03-15T01:48:38.206Z,56.51
2023-03-15T01:51:12.491Z,56.33
2023-03-15T01:53:44.889Z,56.33
2023-03-15T01:56:13.774Z,56.19
2023-03-15T01:58:46.454Z,56.41
2023-03-15T02:01:16.492Z,56.23
2023-03-15T02:03:51.586Z,56.48
2023-03-15T02:06:23.349Z,56.37
2023-03-15T02:08:57.963Z,56.24
2023-03-15T02:11:28.513Z,56.25
2023-03-15T02:13:58.836Z,56.29
2023-03-15T02:16:30.774Z,56.33
2023-03-15T02:19:00.944Z,56.55
2023-03-15T02:21:51.637Z,56.80
2023-03-15T02:24:35.058Z,56.49
2023-03-15T02:27:03.635Z,56.39
2023-03-15T02:29:33.786Z,56.28
2023-03-15T02:32:04.527Z,56.47
2023-03-15T02:34:33.231Z,56.27
2023-03-15T02:37:02.262Z,56.38
2023-03-15T02:39:30.461Z,56.51
2023-03-15T02:42:00.143Z,56.57
2023-03-15T02:44:32.614Z,56.47
2023-03-15T02:47:05.735Z,56.65
2023-03-15T02:49:38.729Z,56.70
2023-03-15T02:52:07.720Z,56.49
2023-03-15T02:54:36.106Z,56.73
2023-03-15T02:57:04.620Z,56.76
2023-03-15T02:59:33.706Z,56.70
2023-03-15T03:02:03.764Z,57.06
2023-03-15T03:04:31.815Z,56.95
2023-03-15T03:07:00.547Z,56.78
2023-03-15T03:09:32.665Z,56.67
2023-03-15T03:12:00.983Z,56.62
2023-03-15T03:14:29.372Z,56.62
2023-03-15T03:16:58.171Z,56.39
2023-03-15T03:19:27.950Z,56.41
2023-03-15T03:21:57.467Z,56.48
2023-03-15T03:24:27.394Z,56.72
2023-03-15T03:26:58.034Z,56.50
2023-03-15T03:29:27.976Z,56.20
2023-03-15T03:31:56.504Z,56.58
2023-03-15T03:34:24.513Z,56.53
2023-03-15T03:36:54.117Z,56.66
2023-03-15T03:39:23.407Z,56.55
2023-03-15T03:41:51.445Z,56.52
2023-03-15T03:44:20.634Z,56.77
2023-03-15T03:46:48.861Z,56.72
2023-03-15T03:49:16.946Z,56.91
2023-03-15T03:51:47.679Z,56.73
2023-03-15T03:54:17.725Z,56.90
2023-03-15T03:56:46.241Z,56.99
2023-03-15T03:59:14.430Z,56.97
2023-03-15T04:01:43.144Z,57.09
2023-03-15T04:04:14.279Z,57.38
2023-03-15T04:06:45.573Z,57.20
2023-03-15T04:09:14.754Z,57.09
2023-03-15T04:11:45.845Z,57.07
2023-03-15T04:14:15.772Z,57.00
2023-03-15T04:16:44.228Z,56.91
2023-03-15T04:19:13.787Z,57.22
2023-03-15T04:21:47.517Z,57.28
2023-03-15T04:24:16.264Z,57.28
2023-03-15T04:26:46.008Z,57.34
2023-03-15T04:29:15.627Z,57.41
2023-03-15T04:31:43.881Z,57.41
2023-03-15T04:34:13.482Z,57.42
2023-03-15T04:36:43.576Z,57.35
2023-03-15T04:39:12.661Z,57.26
2023-03-15T04:41:41.284Z,57.35
2023-03-15T04:44:10.683Z,57.22
2023-03-15T04:46:38.994Z,57.37
2023-03-15T04:49:07.453Z,57.37
2023-03-15T04:51:35.797Z,57.35
2023-03-15T04:54:04.392Z,57.15
2023-03-15T04:56:33.074Z,57.19
2023-03-15T04:59:01.774Z,57.46
2023-03-15T05:01:33.189Z,57.77
2023-03-15T05:04:01.592Z,57.78
2023-03-15T05:06:30.585Z,57.76
2023-03-15T05:08:59.022Z,57.73
2023-03-15T05:11:27.310Z,57.78
2023-03-15T05:13:55.969Z,57.94
2023-03-15T05:16:24.317Z,57.85
2023-03-15T05:18:57.171Z,58.17
2023-03-15T05:21:25.445Z,58.00
2023-03-15T05:23:53.737Z,57.98
2023-03-15T05:26:24.805Z,57.92
2023-03-15T05:28:53.479Z,57.90
2023-03-15T05:31:21.986Z,57.71
2023-03-15T05:33:54.412Z,57.75
2023-03-15T05:36:23.799Z,57.84
2023-03-15T05:38:53.660Z,57.76
2023-03-15T05:41:22.088Z,57.85
2023-03-15T05:43:50.522Z,58.03
2023-03-15T05:46:20.159Z,58.03
2023-03-15T05:48:51.593Z,57.74
2023-03-15T05:51:20.093Z,57.78
2023-03-15T05:53:49.487Z,57.74
2023-03-15T05:56:19.484Z,57.90
2023-03-15T05:58:47.617Z,57.59
2023-03-15T06:01:15.838Z,57.50
2023-03-15T06:03:44.804Z,57.42
2023-03-15T06:06:13.052Z,57.30
2023-03-15T06:08:41.213Z,57.37
2023-03-15T06:11:10.846Z,57.35
2023-03-15T06:13:41.163Z,57.32
2023-03-15T06:16:11.593Z,57.55
2023-03-15T06:18:40.714Z,58.06
2023-03-15T06:21:09.644Z,58.61
2023-03-15T06:23:38.438Z,59.19
2023-03-15T06:26:06.641Z,60.56
2023-03-15T06:28:37.302Z,60.83
2023-03-15T06:31:08.777Z,60.41
2023-03-15T06:33:38.551Z,60.28
2023-03-15T06:36:11.188Z,60.82
2023-03-15T06:38:39.961Z,60.67
2023-03-15T06:41:08.652Z,60.28
2023-03-15T06:43:38.370Z,60.31
2023-03-15T06:46:07.106Z,60.51
2023-03-15T06:48:36.063Z,61.02
2023-03-15T06:51:05.964Z,60.13
2023-03-15T06:53:37.428Z,60.10
2023-03-15T06:56:06.051Z,60.22
2023-03-15T06:58:34.407Z,60.47
2023-03-15T07:01:03.840Z,60.88
2023-03-15T07:03:31.971Z,60.55
2023-03-15T07:06:00.154Z,61.50
2023-03-15T07:08:28.142Z,60.79
2023-03-15T07:10:56.326Z,60.46
2023-03-15T07:13:24.821Z,60.62
2023-03-15T07:15:54.072Z,60.55
2023-03-15T07:18:24.237Z,60.24
2023-03-15T07:21:00.139Z,60.05
2023-03-15T07:23:29.267Z,60.89
2023-03-15T07:25:58.207Z,60.38
2023-03-15T07:28:27.935Z,61.21
2023-03-15T07:30:57.747Z,60.50
2023-03-15T07:33:27.964Z,60.48
2023-03-15T07:35:56.662Z,60.35
2023-03-15T07:38:26.045Z,60.12
2023-03-15T07:40:54.406Z,60.54
2023-03-15T07:43:24.588Z,60.18
2023-03-15T07:45:59.653Z,60.56
2023-03-15T07:48:30.201Z,60.28
2023-03-15T07:50:58.410Z,60.65
2023-03-15T07:53:26.781Z,60.12
2023-03-15T07:55:55.483Z,59.86
2023-03-15T07:58:24.186Z,59.80
2023-03-15T08:00:55.867Z,60.20
2023-03-15T08:03:24.513Z,60.48
2023-03-15T08:05:54.139Z,60.45
2023-03-15T08:08:22.242Z,60.57
2023-03-15T08:10:50.467Z,60.38
2023-03-15T08:13:18.819Z,60.10
2023-03-15T08:15:47.531Z,60.02
2023-03-15T08:18:15.900Z,59.65
2023-03-15T08:20:44.081Z,59.51
2023-03-15T08:23:16.285Z,59.68
2023-03-15T08:25:45.023Z,59.48
2023-03-15T08:28:13.044Z,59.08
2023-03-15T08:30:41.357Z,59.17
2023-03-15T08:33:10.437Z,59.04
2023-03-15T08:35:38.499Z,58.71
2023-03-15T08:38:06.509Z,58.09
2023-03-15T08:40:36.730Z,58.07
2023-03-15T08:43:05.659Z,58.02
2023-03-15T08:45:51.022Z,57.23
2023-03-15T08:48:21.664Z,57.09
2023-03-15T08:50:49.689Z,56.48
2023-03-15T08:53:17.678Z,56.36
2023-03-15T08:55:48.716Z,56.21
2023-03-15T08:58:16.845Z,56.85
2023-03-15T09:00:44.867Z,56.32
2023-03-15T09:03:13.467Z,56.66
2023-03-15T09:05:44.492Z,56.38
2023-03-15T09:08:14.058Z,56.57
2023-03-15T09:10:41.989Z,55.58
2023-03-15T09:13:11.213Z,55.57
2023-03-15T09:15:39.558Z,55.63
2023-03-15T09:18:07.467Z,55.49
2023-03-15T09:20:35.562Z,55.87
2023-03-15T09:23:03.768Z,55.36
2023-03-15T09:25:31.873Z,55.41
2023-03-15T09:27:59.975Z,54.72
2023-03-15T09:30:29.895Z,55.21
2023-03-15T09:32:58.046Z,55.83
2023-03-15T09:35:26.254Z,55.59
2023-03-15T09:37:54.548Z,55.17
2023-03-15T09:40:26.893Z,54.48
2023-03-15T09:43:19.263Z,54.93
2023-03-15T09:46:05.440Z,54.46
2023-03-15T09:48:37.967Z,53.46
2023-03-15T09:51:11.631Z,53.57
2023-03-15T09:53:43.913Z,51.33
2023-03-15T09:56:23.558Z,52.77
2023-03-15T09:58:55.142Z,51.75
2023-03-15T10:01:30.838Z,53.32
2023-03-15T10:04:00.859Z,52.43
2023-03-15T10:06:36.519Z,54.07
2023-03-15T10:09:14.889Z,52.42
2023-03-15T10:11:51.016Z,51.07
2023-03-15T10:14:28.160Z,52.68
2023-03-15T10:16:57.410Z,51.89
2023-03-15T10:19:33.281Z,51.27
2023-03-15T10:22:04.902Z,51.66
2023-03-15T10:24:39.648Z,52.92
2023-03-15T10:27:17.063Z,51.26
2023-03-15T10:29:45.973Z,50.37
2023-03-15T10:32:19.273Z,52.14
2023-03-15T10:34:50.709Z,52.44
2023-03-15T10:37:19.134Z,51.97
2023-03-15T10:39:50.484Z,51.89
2023-03-15T10:42:30.409Z,50.85
2023-03-15T10:45:00.245Z,48.96
2023-03-15T10:47:29.534Z,50.65
2023-03-15T10:49:59.277Z,49.57
2023-03-15T10:52:35.574Z,48.21
2023-03-15T10:55:06.967Z,49.66
2023-03-15T10:57:40.056Z,48.00
2023-03-15T11:00:27.346Z,46.76
2023-03-15T11:03:05.629Z,48.02
2023-03-15T11:05:41.119Z,47.11
2023-03-15T11:08:15.217Z,47.57
2023-03-15T11:10:45.178Z,48.39
2023-03-15T11:13:19.784Z,48.78
2023-03-15T11:16:01.402Z,48.33
2023-03-15T11:18:37.316Z,46.18
2023-03-15T11:21:09.706Z,45.66
2023-03-15T11:23:40.560Z,48.51
2023-03-15T11:26:29.286Z,48.75
2023-03-15T11:29:01.926Z,47.53
2023-03-15T11:31:31.262Z,47.94
2023-03-15T11:34:04.516Z,44.37
2023-03-15T11:36:37.824Z,46.53
2023-03-15T11:39:06.755Z,45.13
2023-03-15T11:41:38.093Z,47.82
2023-03-15T11:44:17.322Z,46.20
2023-03-15T11:46:50.564Z,47.32
2023-03-15T11:49:28.559Z,47.67
2023-03-15T11:51:57.694Z,47.33
2023-03-15T11:54:29.744Z,47.47
2023-03-15T11:57:05.357Z,47.66
2023-03-15T11:59:36.684Z,48.04
2023-03-15T12:02:40.453Z,48.24
2023-03-15T12:05:43.990Z,45.57
2023-03-15T12:08:25.757Z,45.59
2023-03-15T12:10:54.323Z,46.58
2023-03-15T12:13:27.834Z,47.71
2023-03-15T12:15:56.670Z,47.23
2023-03-15T12:18:32.223Z,47.55
2023-03-15T12:21:12.017Z,48.24
2023-03-15T12:23:44.107Z,48.03
2023-03-15T12:26:25.659Z,49.13
2023-03-15T12:29:04.010Z,48.28
2023-03-15T12:31:53.571Z,48.37
2023-03-15T12:34:34.697Z,46.66
2023-03-15T12:37:08.057Z,47.68
2023-03-15T12:39:46.071Z,48.35
2023-03-15T12:42:36.257Z,47.17
2023-03-15T12:45:37.486Z,47.76
2023-03-15T12:48:23.021Z,46.17
2023-03-15T12:50:54.284Z,46.49
2023-03-15T12:53:28.277Z,46.06
2023-03-15T12:56:08.042Z,47.19
2023-03-15T12:58:38.185Z,47.87
2023-03-15T13:01:08.993Z,45.75
2023-03-15T13:03:37.494Z,47.06
2023-03-15T13:06:14.427Z,47.53
2023-03-15T13:08:48.391Z,44.70
2023-03-15T13:11:25.698Z,43.87
2023-03-15T13:14:09.373Z,44.40
2023-03-15T13:16:45.193Z,40.77
2023-03-15T13:19:19.886Z,41.81
2023-03-15T13:22:02.842Z,43.83
2023-03-15T13:24:42.686Z,43.89
2023-03-15T13:27:19.413Z,45.58
2023-03-15T13:29:47.909Z,47.69
2023-03-15T13:32:20.880Z,48.05
2023-03-15T13:34:49.935Z,46.70
2023-03-15T13:37:22.184Z,48.22
2023-03-15T13:39:58.665Z,47.83
2023-03-15T13:42:26.731Z,47.68
2023-03-15T13:45:12.419Z,47.50
2023-03-15T13:47:43.734Z,47.51
2023-03-15T13:50:16.245Z,48.37
2023-03-15T13:52:45.061Z,47.68
2023-03-15T13:55:17.862Z,47.47
2023-03-15T13:57:45.870Z,45.91
2023-03-15T14:00:19.137Z,46.79
2023-03-15T14:02:54.128Z,46.42
2023-03-15T14:05:28.035Z,43.40
2023-03-15T14:08:02.700Z,44.59
2023-03-15T14:10:32.538Z,44.08
2023-03-15T14:13:18.033Z,44.95
2023-03-15T14:15:47.964Z,41.95
2023-03-15T14:18:25.219Z,41.96
2023-03-15T14:20:59.904Z,42.23
2023-03-15T14:23:29.799Z,41.66
2023-03-15T14:26:05.567Z,42.75
2023-03-15T14:28:34.684Z,41.99
2023-03-15T14:31:04.278Z,44.50
2023-03-15T14:33:40.796Z,47.04
2023-03-15T14:36:22.258Z,46.35
2023-03-15T14:38:52.415Z,46.29
2023-03-15T14:41:26.309Z,47.72
2023-03-15T14:43:54.718Z,48.02
2023-03-15T14:46:22.931Z,48.58
2023-03-15T14:48:52.787Z,48.51
2023-03-15T14:51:23.563Z,47.96
2023-03-15T14:53:54.334Z,47.05
2023-03-15T14:56:22.225Z,46.89
2023-03-15T14:58:54.072Z,45.59
2023-03-15T15:01:26.375Z,45.65
2023-03-15T15:04:00.670Z,45.13
2023-03-15T15:06:31.845Z,44.52
2023-03-15T15:09:01.665Z,46.93
2023-03-15T15:11:30.146Z,45.28
2023-03-15T15:13:58.627Z,46.29
2023-03-15T15:16:26.899Z,46.46
2023-03-15T15:18:56.555Z,45.75
2023-03-15T15:21:26.930Z,46.25
2023-03-15T15:23:59.133Z,44.56
2023-03-15T15:26:30.350Z,46.09
2023-03-15T15:28:59.450Z,45.02
2023-03-15T15:31:34.303Z,46.50
2023-03-15T15:34:05.218Z,45.75
2023-03-15T15:36:36.284Z,46.32
2023-03-15T15:39:11.618Z,46.19
2023-03-15T15:41:39.928Z,45.77
2023-03-15T15:44:14.835Z,45.38
2023-03-15T15:46:42.819Z,44.83
2023-03-15T15:49:12.673Z,46.85
2023-03-15T15:51:45.541Z,46.52
2023-03-15T15:54:16.877Z,46.23
2023-03-15T15:56:49.620Z,45.83
2023-03-15T15:59:19.017Z,45.21
2023-03-15T16:01:59.748Z,45.29
2023-03-15T16:04:32.668Z,45.74
2023-03-15T16:07:03.549Z,45.51
2023-03-15T16:09:35.809Z,45.68
2023-03-15T16:12:04.694Z,46.03
2023-03-15T16:14:33.273Z,45.77
2023-03-15T16:17:01.367Z,47.67
2023-03-15T16:19:30.992Z,48.06
2023-03-15T16:21:59.266Z,48.38
2023-03-15T16:24:29.102Z,48.77
2023-03-15T16:27:01.696Z,49.07
2023-03-15T16:29:36.372Z,49.61
2023-03-15T16:32:16.402Z,49.53
2023-03-15T16:34:47.437Z,49.38
2023-03-15T16:37:17.958Z,49.00
2023-03-15T16:39:48.917Z,49.44
2023-03-15T16:42:18.659Z,49.59
2023-03-15T16:44:47.557Z,49.52
2023-03-15T16:47:15.940Z,49.98
2023-03-15T16:49:44.425Z,50.09
2023-03-15T16:52:16.506Z,50.03
2023-03-15T16:54:47.738Z,50.01
2023-03-15T16:57:21.752Z,50.09
2023-03-15T16:59:49.785Z,50.08
2023-03-15T17:02:19.690Z,50.20
2023-03-15T17:04:48.163Z,50.33
2023-03-15T17:07:18.353Z,49.96
2023-03-15T17:09:49.311Z,50.14
2023-03-15T17:12:23.472Z,50.31
2023-03-15T17:14:52.662Z,50.54
2023-03-15T17:17:20.884Z,50.27
2023-03-15T17:19:49.175Z,50.42
2023-03-15T17:22:19.697Z,50.30
2023-03-15T17:24:49.628Z,50.38
2023-03-15T17:27:23.339Z,50.49
2023-03-15T17:29:51.330Z,50.71
2023-03-15T17:32:19.536Z,50.67
2023-03-15T17:34:48.034Z,50.86
2023-03-15T17:37:18.351Z,51.16
2023-03-15T17:39:48.658Z,51.18
2023-03-15T17:42:16.777Z,51.29
2023-03-15T17:44:44.787Z,51.37
2023-03-15T17:47:13.838Z,51.53
2023-03-15T17:49:42.261Z,51.48
2023-03-15T17:52:17.256Z,51.69
2023-03-15T17:54:46.049Z,51.79
2023-03-15T17:57:15.536Z,51.63
2023-03-15T17:59:43.639Z,51.58
2023-03-15T18:02:16.512Z,51.74
2023-03-15T18:04:47.220Z,51.73
2023-03-15T18:07:15.143Z,51.67
2023-03-15T18:09:43.546Z,51.70
2023-03-15T18:12:14.377Z,51.69
2023-03-15T18:14:44.812Z,51.70
2023-03-15T18:17:13.185Z,51.67
2023-03-15T18:19:41.606Z,51.79
2023-03-15T18:22:15.546Z,52.10
2023-03-15T18:24:47.216Z,52.10
2023-03-15T18:27:15.571Z,52.22
2023-03-15T18:29:45.400Z,52.30
2023-03-15T18:32:13.438Z,52.26
2023-03-15T18:34:41.464Z,52.29
2023-03-15T18:37:11.712Z,52.59
2023-03-15T18:39:39.679Z,52.62
2023-03-15T18:42:08.157Z,52.76
2023-03-15T18:44:36.440Z,52.84
2023-03-15T18:47:08.562Z,52.82
2023-03-15T18:49:37.469Z,52.94
2023-03-15T18:52:06.334Z,53.20
2023-03-15T18:54:34.327Z,53.04
2023-03-15T18:57:02.715Z,53.14
2023-03-15T18:59:31.369Z,53.03
2023-03-15T19:01:59.975Z,53.01
2023-03-15T19:04:29.854Z,53.02
2023-03-15T19:06:57.775Z,52.99
2023-03-15T19:09:26.366Z,53.10
2023-03-15T19:11:55.557Z,53.24
2023-03-15T19:14:24.313Z,53.22
2023-03-15T19:16:54.104Z,53.16
2023-03-15T19:19:22.740Z,53.20
2023-03-15T19:21:53.160Z,53.20
2023-03-15T19:24:21.265Z,53.28
2023-03-15T19:26:49.552Z,53.33
2023-03-15T19:29:17.535Z,53.51
2023-03-15T19:31:45.618Z,53.55
2023-03-15T19:34:13.803Z,53.55
2023-03-15T19:36:41.761Z,53.46
2023-03-15T19:39:12.358Z,53.67
2023-03-15T19:41:41.328Z,53.75
2023-03-15T19:44:09.922Z,54.04
2023-03-15T19:46:37.944Z,53.62
2023-03-15T19:49:06.728Z,53.74
2023-03-15T19:51:34.671Z,53.60
2023-03-15T19:54:03.721Z,53.59
2023-03-15T19:56:36.714Z,53.55
2023-03-15T19:59:05.497Z,53.55
2023-03-15T20:01:33.907Z,53.60
2023-03-15T20:04:02.520Z,53.70
2023-03-15T20:06:30.573Z,53.65
2023-03-15T20:08:58.851Z,53.62
2023-03-15T20:11:29.468Z,53.74
2023-03-15T20:13:59.029Z,53.74
2023-03-15T20:16:27.330Z,53.67
2023-03-15T20:18:56.219Z,53.83
2023-03-15T20:21:24.931Z,53.76
2023-03-15T20:23:54.119Z,53.75
2023-03-15T20:26:22.397Z,53.93
2023-03-15T20:28:50.625Z,53.86
2023-03-15T20:31:21.650Z,53.90
2023-03-15T20:33:51.236Z,54.08
2023-03-15T20:36:19.953Z,54.16
2023-03-15T20:38:48.891Z,54.22
2023-03-15T20:41:18.265Z,54.07
2023-03-15T20:43:47.396Z,54.09
2023-03-15T20:46:17.085Z,54.12
2023-03-15T20:48:46.743Z,54.08
2023-03-15T20:51:15.821Z,54.22
2023-03-15T20:53:44.328Z,54.35
2023-03-15T20:56:12.786Z,54.29
2023-03-15T20:58:41.950Z,54.41
2023-03-15T21:01:13.199Z,54.50
2023-03-15T21:03:42.428Z,54.46
2023-03-15T21:06:12.810Z,54.64
2023-03-15T21:08:42.468Z,54.76
2023-03-15T21:11:10.840Z,54.80
2023-03-15T21:13:41.990Z,54.90
2023-03-15T21:16:12.869Z,54.52
2023-03-15T21:18:47.627Z,54.44
2023-03-15T21:21:17.273Z,54.47
2023-03-15T21:23:45.381Z,54.59
2023-03-15T21:26:16.053Z,54.54
2023-03-15T21:28:44.618Z,54.42
2023-03-15T21:31:12.793Z,54.49
2023-03-15T21:33:41.277Z,54.60
2023-03-15T21:36:09.661Z,54.65
2023-03-15T21:38:39.220Z,54.69
2023-03-15T21:41:08.998Z,54.87
2023-03-15T21:43:37.819Z,54.62
2023-03-15T21:46:08.507Z,54.74
2023-03-15T21:48:37.976Z,54.74
2023-03-15T21:51:07.695Z,54.93
2023-03-15T21:53:37.510Z,54.82
2023-03-15T21:56:07.489Z,54.67
2023-03-15T21:58:35.657Z,54.57
2023-03-15T22:01:05.840Z,54.64
2023-03-15T22:03:35.403Z,54.71
2023-03-15T22:06:03.874Z,54.47
2023-03-15T22:08:33.710Z,54.39
2023-03-15T22:11:02.292Z,54.52
2023-03-15T22:13:31.733Z,54.63
2023-03-15T22:16:02.357Z,54.36
2023-03-15T22:18:31.809Z,54.50
2023-03-15T22:20:59.843Z,54.46
2023-03-15T22:23:27.883Z,54.53
2023-03-15T22:25:57.197Z,54.52
2023-03-15T22:28:26.051Z,54.50
2023-03-15T22:30:55.338Z,54.62
2023-03-15T22:33:23.850Z,54.75
2023-03-15T22:35:56.405Z,54.74
2023-03-15T22:38:25.962Z,54.90
2023-03-15T22:41:02.157Z,54.73
2023-03-15T22:43:30.731Z,55.25
2023-03-15T22:46:00.245Z,54.97
2023-03-15T22:48:28.819Z,54.85
2023-03-15T22:50:58.818Z,54.86
2023-03-15T22:53:27.080Z,55.03
2023-03-15T22:55:55.451Z,54.97
2023-03-15T22:58:24.863Z,55.12
2023-03-15T23:00:53.335Z,55.24
2023-03-15T23:03:22.943Z,55.23
2023-03-15T23:05:51.369Z,55.24
2023-03-15T23:08:19.565Z,55.31
2023-03-15T23:10:47.646Z,55.31
2023-03-15T23:13:16.135Z,55.49
2023-03-15T23:15:44.484Z,55.74
2023-03-15T23:18:14.487Z,55.85
2023-03-15T23:20:44.165Z,55.74
2023-03-15T23:23:12.197Z,55.48
2023-03-15T23:25:41.467Z,55.52
2023-03-15T23:28:09.763Z,55.49
2023-03-15T23:30:38.872Z,55.87
2023-03-15T23:33:08.478Z,55.67
2023-03-15T23:35:37.380Z,55.86
2023-03-15T23:38:06.854Z,55.71
2023-03-15T23:40:35.228Z,55.63
2023-03-15T23:43:04.319Z,55.60
2023-03-15T23:45:32.911Z,55.65
2023-03-15T23:48:02.636Z,55.82
2023-03-15T23:50:31.443Z,55.77
2023-03-15T23:52:59.768Z,55.87
2023-03-15T23:55:29.318Z,55.55
2023-03-15T23:57:58.958Z,55.48
